sensor_id;sensor_type;location;lat;lon;timestamp;P1;P2;P0
79038;PMS5003;68436;55.068;73.284;2024-03-17T00:01:08;65.00;47.00;29.00
79038;PMS5003;68436;55.068;73.284;2024-03-17T00:03:42;69.33;51.33;31.00
79038;PMS5003;68436;55.068;73.284;2024-03-17T00:06:09;90.75;70.00;40.00
79038;PMS5003;68436;55.068;73.284;2024-03-17T00:08:42;149.00;117.00;62.67
79038;PMS5003;68436;55.068;73.284;2024-03-17T00:11:08;155.25;119.50;61.50
79038;PMS5003;68436;55.068;73.284;2024-03-17T00:16:27;111.50;84.00;45.00
79038;PMS5003;68436;55.068;73.284;2024-03-17T00:18:53;50.67;38.00;22.00
79038;PMS5003;68436;55.068;73.284;2024-03-17T00:21:19;115.00;91.75;52.25
79038;PMS5003;68436;55.068;73.284;2024-03-17T00:23:48;75.33;57.67;33.00
79038;PMS5003;68436;55.068;73.284;2024-03-17T00:26:17;157.25;123.00;70.00
79038;PMS5003;68436;55.068;73.284;2024-03-17T00:28:45;86.00;65.67;35.67
79038;PMS5003;68436;55.068;73.284;2024-03-17T00:31:14;222.25;167.00;84.50
79038;PMS5003;68436;55.068;73.284;2024-03-17T00:33:42;108.50;83.50;44.50
79038;PMS5003;68436;55.068;73.284;2024-03-17T00:36:09;252.25;198.25;104.50
79038;PMS5003;68436;55.068;73.284;2024-03-17T00:38:42;248.00;190.00;99.00
79038;PMS5003;68436;55.068;73.284;2024-03-17T00:41:08;123.75;97.75;56.00
79038;PMS5003;68436;55.068;73.284;2024-03-17T00:43:42;53.00;42.67;27.00
79038;PMS5003;68436;55.068;73.284;2024-03-17T00:46:08;74.50;58.50;36.00
79038;PMS5003;68436;55.068;73.284;2024-03-17T00:48:42;81.33;66.33;40.33
79038;PMS5003;68436;55.068;73.284;2024-03-17T00:51:09;94.50;78.75;49.75
79038;PMS5003;68436;55.068;73.284;2024-03-17T00:53:42;62.33;48.00;30.00
79038;PMS5003;68436;55.068;73.284;2024-03-17T00:56:08;65.50;50.00;32.00
79038;PMS5003;68436;55.068;73.284;2024-03-17T00:58:42;47.00;37.33;24.00
79038;PMS5003;68436;55.068;73.284;2024-03-17T01:01:10;40.50;32.00;21.00
79038;PMS5003;68436;55.068;73.284;2024-03-17T01:03:42;49.00;39.00;25.00
79038;PMS5003;68436;55.068;73.284;2024-03-17T01:06:09;40.00;31.00;19.75
79038;PMS5003;68436;55.068;73.284;2024-03-17T01:08:53;43.00;35.33;21.00
79038;PMS5003;68436;55.068;73.284;2024-03-17T01:11:19;48.00;37.00;22.00
79038;PMS5003;68436;55.068;73.284;2024-03-17T01:13:46;37.50;29.50;20.00
79038;PMS5003;68436;55.068;73.284;2024-03-17T01:16:13;53.00;41.00;25.25
79038;PMS5003;68436;55.068;73.284;2024-03-17T01:18:42;56.00;43.00;27.00
79038;PMS5003;68436;55.068;73.284;2024-03-17T01:21:11;53.50;41.75;26.25
79038;PMS5003;68436;55.068;73.284;2024-03-17T01:23:42;38.00;30.00;20.00
79038;PMS5003;68436;55.068;73.284;2024-03-17T01:26:08;55.00;41.00;26.00
79038;PMS5003;68436;55.068;73.284;2024-03-17T01:28:42;45.33;36.67;22.00
79038;PMS5003;68436;55.068;73.284;2024-03-17T01:31:08;57.00;42.75;25.00
79038;PMS5003;68436;55.068;73.284;2024-03-17T01:33:42;48.00;37.00;22.33
79038;PMS5003;68436;55.068;73.284;2024-03-17T01:36:09;52.00;41.00;25.00
79038;PMS5003;68436;55.068;73.284;2024-03-17T01:38:42;49.50;38.00;23.50
79038;PMS5003;68436;55.068;73.284;2024-03-17T01:41:08;48.25;38.50;24.25
79038;PMS5003;68436;55.068;73.284;2024-03-17T01:43:42;39.33;31.33;20.33
79038;PMS5003;68436;55.068;73.284;2024-03-17T01:46:15;54.25;40.00;26.00
79038;PMS5003;68436;55.068;73.284;2024-03-17T01:48:43;49.00;37.00;20.00
79038;PMS5003;68436;55.068;73.284;2024-03-17T01:51:10;54.75;42.00;26.50
79038;PMS5003;68436;55.068;73.284;2024-03-17T01:53:42;46.00;35.00;22.00
79038;PMS5003;68436;55.068;73.284;2024-03-17T01:56:10;53.00;41.00;25.00
79038;PMS5003;68436;55.068;73.284;2024-03-17T01:58:43;53.00;43.00;27.00
79038;PMS5003;68436;55.068;73.284;2024-03-17T02:01:10;54.75;41.75;26.00
79038;PMS5003;68436;55.068;73.284;2024-03-17T02:03:42;32.00;22.50;13.00
79038;PMS5003;68436;55.068;73.284;2024-03-17T02:06:09;32.75;26.75;15.50
79038;PMS5003;68436;55.068;73.284;2024-03-17T02:08:49;52.00;40.67;24.67
79038;PMS5003;68436;55.068;73.284;2024-03-17T02:11:32;34.50;28.00;17.50
79038;PMS5003;68436;55.068;73.284;2024-03-17T02:13:59;28.00;23.67;16.00
79038;PMS5003;68436;55.068;73.284;2024-03-17T02:16:26;37.75;28.00;17.00
79038;PMS5003;68436;55.068;73.284;2024-03-17T02:18:55;65.75;51.00;31.50
79038;PMS5003;68436;55.068;73.284;2024-03-17T02:21:22;44.00;35.00;21.25
79038;PMS5003;68436;55.068;73.284;2024-03-17T02:23:53;45.67;33.00;19.67
79038;PMS5003;68436;55.068;73.284;2024-03-17T02:26:19;255.00;194.00;97.75
79038;PMS5003;68436;55.068;73.284;2024-03-17T02:28:46;73.00;61.00;42.50
79038;PMS5003;68436;55.068;73.284;2024-03-17T02:31:13;32.00;24.25;16.00
79038;PMS5003;68436;55.068;73.284;2024-03-17T02:33:43;34.50;27.00;16.00
79038;PMS5003;68436;55.068;73.284;2024-03-17T02:36:10;33.50;25.75;14.50
79038;PMS5003;68436;55.068;73.284;2024-03-17T02:38:42;30.00;23.00;14.00
79038;PMS5003;68436;55.068;73.284;2024-03-17T02:41:27;33.25;26.25;17.00
79038;PMS5003;68436;55.068;73.284;2024-03-17T02:43:56;28.67;23.33;15.00
79038;PMS5003;68436;55.068;73.284;2024-03-17T02:46:23;40.00;32.00;19.00
79038;PMS5003;68436;55.068;73.284;2024-03-17T02:48:52;47.00;36.00;22.00
79038;PMS5003;68436;55.068;73.284;2024-03-17T02:51:19;27.00;23.50;14.50
79038;PMS5003;68436;55.068;73.284;2024-03-17T02:53:46;29.25;24.00;15.00
79038;PMS5003;68436;55.068;73.284;2024-03-17T02:56:31;39.50;31.50;19.00
79038;PMS5003;68436;55.068;73.284;2024-03-17T02:58:57;42.67;34.33;22.00
79038;PMS5003;68436;55.068;73.284;2024-03-17T03:01:23;30.25;23.00;15.75
79038;PMS5003;68436;55.068;73.284;2024-03-17T03:03:50;52.25;40.00;23.00
79038;PMS5003;68436;55.068;73.284;2024-03-17T03:06:17;36.00;28.00;18.00
79038;PMS5003;68436;55.068;73.284;2024-03-17T03:08:45;36.33;30.00;19.00
79038;PMS5003;68436;55.068;73.284;2024-03-17T03:11:15;42.00;33.25;22.00
79038;PMS5003;68436;55.068;73.284;2024-03-17T03:13:43;22.00;18.00;11.50
79038;PMS5003;68436;55.068;73.284;2024-03-17T03:16:10;37.00;30.00;19.50
79038;PMS5003;68436;55.068;73.284;2024-03-17T03:18:42;39.00;31.00;19.00
79038;PMS5003;68436;55.068;73.284;2024-03-17T03:21:10;38.00;30.00;18.00
79038;PMS5003;68436;55.068;73.284;2024-03-17T03:23:42;40.00;30.00;18.00
79038;PMS5003;68436;55.068;73.284;2024-03-17T03:26:08;25.50;21.00;14.00
79038;PMS5003;68436;55.068;73.284;2024-03-17T03:28:42;31.33;25.00;15.00
79038;PMS5003;68436;55.068;73.284;2024-03-17T03:31:11;26.00;21.25;12.00
79038;PMS5003;68436;55.068;73.284;2024-03-17T03:33:42;35.50;27.00;19.00
79038;PMS5003;68436;55.068;73.284;2024-03-17T03:38:42;43.00;34.00;22.00
79038;PMS5003;68436;55.068;73.284;2024-03-17T03:41:09;40.25;30.00;19.75
79038;PMS5003;68436;55.068;73.284;2024-03-17T03:43:42;16.50;13.00;8.00
79038;PMS5003;68436;55.068;73.284;2024-03-17T03:46:08;29.00;24.75;16.00
79038;PMS5003;68436;55.068;73.284;2024-03-17T03:48:42;44.00;33.67;22.00
79038;PMS5003;68436;55.068;73.284;2024-03-17T03:51:08;31.00;25.00;14.00
79038;PMS5003;68436;55.068;73.284;2024-03-17T03:53:42;35.00;27.00;17.00
79038;PMS5003;68436;55.068;73.284;2024-03-17T03:56:08;47.50;35.00;23.00
79038;PMS5003;68436;55.068;73.284;2024-03-17T03:58:42;26.50;21.00;12.50
79038;PMS5003;68436;55.068;73.284;2024-03-17T04:01:10;37.00;30.00;19.00
79038;PMS5003;68436;55.068;73.284;2024-03-17T04:03:47;25.60;22.40;14.00
79038;PMS5003;68436;55.068;73.284;2024-03-17T04:06:14;35.50;28.75;18.75
79038;PMS5003;68436;55.068;73.284;2024-03-17T04:08:42;21.50;17.50;11.50
79038;PMS5003;68436;55.068;73.284;2024-03-17T04:11:09;30.00;23.00;15.00
79038;PMS5003;68436;55.068;73.284;2024-03-17T04:13:42;29.00;22.00;13.00
79038;PMS5003;68436;55.068;73.284;2024-03-17T04:16:08;37.50;29.50;19.25
79038;PMS5003;68436;55.068;73.284;2024-03-17T04:18:42;35.00;28.00;19.00
79038;PMS5003;68436;55.068;73.284;2024-03-17T04:21:08;45.00;34.50;22.25
79038;PMS5003;68436;55.068;73.284;2024-03-17T04:23:42;26.00;21.00;13.67
79038;PMS5003;68436;55.068;73.284;2024-03-17T04:26:08;44.75;35.75;22.00
79038;PMS5003;68436;55.068;73.284;2024-03-17T04:28:42;34.67;28.00;18.00
79038;PMS5003;68436;55.068;73.284;2024-03-17T04:31:08;31.00;26.00;18.00
79038;PMS5003;68436;55.068;73.284;2024-03-17T04:33:42;25.00;19.00;11.00
79038;PMS5003;68436;55.068;73.284;2024-03-17T04:36:08;37.25;29.50;18.00
79038;PMS5003;68436;55.068;73.284;2024-03-17T04:38:42;37.00;29.00;17.00
79038;PMS5003;68436;55.068;73.284;2024-03-17T04:41:08;30.25;23.50;14.50
79038;PMS5003;68436;55.068;73.284;2024-03-17T04:43:42;32.50;25.50;15.00
79038;PMS5003;68436;55.068;73.284;2024-03-17T04:46:08;36.25;28.25;18.00
79038;PMS5003;68436;55.068;73.284;2024-03-17T04:48:42;39.00;31.00;20.00
79038;PMS5003;68436;55.068;73.284;2024-03-17T04:51:12;30.75;26.00;15.25
79038;PMS5003;68436;55.068;73.284;2024-03-17T04:53:42;19.50;14.50;9.00
79038;PMS5003;68436;55.068;73.284;2024-03-17T04:56:08;31.00;25.25;17.00
79038;PMS5003;68436;55.068;73.284;2024-03-17T05:01:26;36.00;29.00;17.75
79038;PMS5003;68436;55.068;73.284;2024-03-17T05:03:52;19.00;15.00;9.00
79038;PMS5003;68436;55.068;73.284;2024-03-17T05:06:19;26.00;21.50;13.00
79038;PMS5003;68436;55.068;73.284;2024-03-17T05:08:45;28.67;23.00;14.00
79038;PMS5003;68436;55.068;73.284;2024-03-17T05:11:11;23.00;19.00;11.00
79038;PMS5003;68436;55.068;73.284;2024-03-17T05:13:42;30.00;24.00;14.00
79038;PMS5003;68436;55.068;73.284;2024-03-17T05:16:08;39.25;32.00;19.00
79038;PMS5003;68436;55.068;73.284;2024-03-17T05:21:35;48.00;38.00;24.25
79038;PMS5003;68436;55.068;73.284;2024-03-17T05:24:02;49.00;39.00;24.00
79038;PMS5003;68436;55.068;73.284;2024-03-17T05:26:28;41.00;32.50;20.25
79038;PMS5003;68436;55.068;73.284;2024-03-17T05:28:56;37.50;27.00;15.50
79038;PMS5003;68436;55.068;73.284;2024-03-17T05:31:25;48.50;38.25;23.75
79038;PMS5003;68436;55.068;73.284;2024-03-17T05:33:51;45.75;35.75;21.75
79038;PMS5003;68436;55.068;73.284;2024-03-17T05:36:20;51.25;41.00;25.00
79038;PMS5003;68436;55.068;73.284;2024-03-17T05:38:47;47.80;39.00;25.40
79038;PMS5003;68436;55.068;73.284;2024-03-17T05:41:14;49.75;38.75;24.00
79038;PMS5003;68436;55.068;73.284;2024-03-17T05:43:42;79.50;68.00;43.50
79038;PMS5003;68436;55.068;73.284;2024-03-17T05:46:09;42.75;34.50;21.25
79038;PMS5003;68436;55.068;73.284;2024-03-17T05:48:42;37.00;29.00;17.00
79038;PMS5003;68436;55.068;73.284;2024-03-17T05:51:09;39.25;30.50;18.00
79038;PMS5003;68436;55.068;73.284;2024-03-17T05:53:42;43.00;34.00;21.50
79038;PMS5003;68436;55.068;73.284;2024-03-17T05:56:12;36.00;30.00;19.50
79038;PMS5003;68436;55.068;73.284;2024-03-17T05:58:42;65.50;49.50;32.00
79038;PMS5003;68436;55.068;73.284;2024-03-17T06:01:08;106.25;86.25;54.00
79038;PMS5003;68436;55.068;73.284;2024-03-17T06:03:42;54.00;43.00;27.67
79038;PMS5003;68436;55.068;73.284;2024-03-17T06:06:08;39.50;32.00;19.00
79038;PMS5003;68436;55.068;73.284;2024-03-17T06:08:42;22.00;19.50;13.00
79038;PMS5003;68436;55.068;73.284;2024-03-17T06:11:08;41.50;33.50;21.00
79038;PMS5003;68436;55.068;73.284;2024-03-17T06:13:42;37.00;30.00;19.67
79038;PMS5003;68436;55.068;73.284;2024-03-17T06:16:08;40.25;32.50;21.00
79038;PMS5003;68436;55.068;73.284;2024-03-17T06:18:42;34.00;26.33;16.33
79038;PMS5003;68436;55.068;73.284;2024-03-17T06:21:27;31.25;26.00;16.00
79038;PMS5003;68436;55.068;73.284;2024-03-17T06:23:53;34.33;27.67;18.67
79038;PMS5003;68436;55.068;73.284;2024-03-17T06:26:37;34.00;27.00;18.00
79038;PMS5003;68436;55.068;73.284;2024-03-17T06:29:04;32.00;25.00;15.00
79038;PMS5003;68436;55.068;73.284;2024-03-17T06:31:30;41.00;33.25;20.00
79038;PMS5003;68436;55.068;73.284;2024-03-17T06:33:56;36.67;31.00;19.00
79038;PMS5003;68436;55.068;73.284;2024-03-17T06:36:24;47.75;36.50;23.00
79038;PMS5003;68436;55.068;73.284;2024-03-17T06:38:50;44.00;35.00;22.50
79038;PMS5003;68436;55.068;73.284;2024-03-17T06:41:17;54.50;42.00;25.00
79038;PMS5003;68436;55.068;73.284;2024-03-17T06:43:43;41.00;31.00;19.00
79038;PMS5003;68436;55.068;73.284;2024-03-17T06:46:10;44.00;34.00;21.00
79038;PMS5003;68436;55.068;73.284;2024-03-17T06:48:42;35.00;29.00;19.00
79038;PMS5003;68436;55.068;73.284;2024-03-17T06:51:08;39.25;31.00;18.50
79038;PMS5003;68436;55.068;73.284;2024-03-17T06:53:42;35.00;27.00;18.00
79038;PMS5003;68436;55.068;73.284;2024-03-17T06:56:08;24.00;21.00;14.00
79038;PMS5003;68436;55.068;73.284;2024-03-17T06:58:42;32.00;25.67;17.00
79038;PMS5003;68436;55.068;73.284;2024-03-17T07:01:08;29.50;24.00;15.75
79038;PMS5003;68436;55.068;73.284;2024-03-17T07:03:42;28.00;21.67;14.00
79038;PMS5003;68436;55.068;73.284;2024-03-17T07:06:09;31.00;26.00;17.00
79038;PMS5003;68436;55.068;73.284;2024-03-17T07:08:42;35.00;29.00;18.00
79038;PMS5003;68436;55.068;73.284;2024-03-17T07:11:08;34.25;27.25;17.25
79038;PMS5003;68436;55.068;73.284;2024-03-17T07:13:42;28.00;23.00;14.00
79038;PMS5003;68436;55.068;73.284;2024-03-17T07:16:09;25.00;20.00;11.00
79038;PMS5003;68436;55.068;73.284;2024-03-17T07:18:42;35.00;28.50;18.00
79038;PMS5003;68436;55.068;73.284;2024-03-17T07:21:10;34.75;29.00;19.00
79038;PMS5003;68436;55.068;73.284;2024-03-17T07:23:42;39.00;29.00;18.00
79038;PMS5003;68436;55.068;73.284;2024-03-17T07:26:08;35.00;28.00;18.00
79038;PMS5003;68436;55.068;73.284;2024-03-17T07:28:42;27.00;23.00;15.00
79038;PMS5003;68436;55.068;73.284;2024-03-17T07:31:10;28.00;23.00;16.00
79038;PMS5003;68436;55.068;73.284;2024-03-17T07:33:42;39.00;29.00;18.00
79038;PMS5003;68436;55.068;73.284;2024-03-17T07:36:08;34.00;27.75;17.00
79038;PMS5003;68436;55.068;73.284;2024-03-17T07:38:42;32.00;26.00;16.00
79038;PMS5003;68436;55.068;73.284;2024-03-17T07:41:08;24.75;20.75;13.75
79038;PMS5003;68436;55.068;73.284;2024-03-17T07:43:42;28.00;23.00;15.00
79038;PMS5003;68436;55.068;73.284;2024-03-17T07:46:09;35.00;28.00;19.00
79038;PMS5003;68436;55.068;73.284;2024-03-17T07:48:43;36.00;28.00;18.00
79038;PMS5003;68436;55.068;73.284;2024-03-17T07:51:10;28.75;24.50;15.75
79038;PMS5003;68436;55.068;73.284;2024-03-17T07:53:43;32.00;28.00;19.00
79038;PMS5003;68436;55.068;73.284;2024-03-17T07:56:14;33.00;27.00;16.25
79038;PMS5003;68436;55.068;73.284;2024-03-17T07:58:43;33.00;28.00;17.00
79038;PMS5003;68436;55.068;73.284;2024-03-17T08:03:45;36.00;29.00;19.00
79038;PMS5003;68436;55.068;73.284;2024-03-17T08:06:11;38.00;30.00;18.00
79038;PMS5003;68436;55.068;73.284;2024-03-17T08:08:42;32.00;27.00;18.00
79038;PMS5003;68436;55.068;73.284;2024-03-17T08:11:08;20.00;17.00;10.25
79038;PMS5003;68436;55.068;73.284;2024-03-17T08:13:42;20.00;17.00;11.00
79038;PMS5003;68436;55.068;73.284;2024-03-17T08:16:09;26.00;21.75;15.00
79038;PMS5003;68436;55.068;73.284;2024-03-17T08:18:42;29.00;24.00;16.00
79038;PMS5003;68436;55.068;73.284;2024-03-17T08:21:09;21.00;16.75;11.25
79038;PMS5003;68436;55.068;73.284;2024-03-17T08:23:42;21.00;18.00;11.33
79038;PMS5003;68436;55.068;73.284;2024-03-17T08:26:09;26.25;21.00;14.00
79038;PMS5003;68436;55.068;73.284;2024-03-17T08:28:42;23.00;18.00;11.00
79038;PMS5003;68436;55.068;73.284;2024-03-17T08:31:08;26.50;23.00;15.50
79038;PMS5003;68436;55.068;73.284;2024-03-17T08:33:42;26.00;23.00;15.00
79038;PMS5003;68436;55.068;73.284;2024-03-17T08:36:08;31.00;26.25;17.50
79038;PMS5003;68436;55.068;73.284;2024-03-17T08:38:42;30.00;26.00;17.00
79038;PMS5003;68436;55.068;73.284;2024-03-17T08:41:09;28.75;23.75;15.00
79038;PMS5003;68436;55.068;73.284;2024-03-17T08:43:42;14.50;13.50;9.00
79038;PMS5003;68436;55.068;73.284;2024-03-17T08:46:09;30.00;25.00;17.00
79038;PMS5003;68436;55.068;73.284;2024-03-17T08:48:42;20.00;16.00;10.00
79038;PMS5003;68436;55.068;73.284;2024-03-17T08:51:08;29.00;24.00;14.50
79038;PMS5003;68436;55.068;73.284;2024-03-17T08:53:42;19.00;17.00;11.00
79038;PMS5003;68436;55.068;73.284;2024-03-17T08:56:08;24.25;20.75;13.00
79038;PMS5003;68436;55.068;73.284;2024-03-17T08:58:42;30.00;24.00;15.00
79038;PMS5003;68436;55.068;73.284;2024-03-17T09:01:08;25.75;22.00;14.50
79038;PMS5003;68436;55.068;73.284;2024-03-17T09:03:42;13.00;12.00;7.00
79038;PMS5003;68436;55.068;73.284;2024-03-17T09:06:16;19.00;17.00;11.00
79038;PMS5003;68436;55.068;73.284;2024-03-17T09:08:42;22.00;18.50;11.00
79038;PMS5003;68436;55.068;73.284;2024-03-17T09:11:11;17.25;14.75;9.00
79038;PMS5003;68436;55.068;73.284;2024-03-17T09:16:39;23.00;19.00;12.00
79038;PMS5003;68436;55.068;73.284;2024-03-17T09:19:05;22.00;19.00;12.00
79038;PMS5003;68436;55.068;73.284;2024-03-17T09:21:31;12.00;11.00;8.00
79038;PMS5003;68436;55.068;73.284;2024-03-17T09:23:57;18.00;15.67;9.00
79038;PMS5003;68436;55.068;73.284;2024-03-17T09:26:25;20.25;16.25;10.50
79038;PMS5003;68436;55.068;73.284;2024-03-17T09:28:51;25.00;20.67;13.00
79038;PMS5003;68436;55.068;73.284;2024-03-17T09:31:17;16.75;13.75;8.00
79038;PMS5003;68436;55.068;73.284;2024-03-17T09:33:43;18.00;15.50;10.50
79038;PMS5003;68436;55.068;73.284;2024-03-17T09:36:10;18.25;16.25;10.00
79038;PMS5003;68436;55.068;73.284;2024-03-17T09:38:42;10.50;9.50;6.00
79038;PMS5003;68436;55.068;73.284;2024-03-17T09:41:23;27.00;22.00;14.00
79038;PMS5003;68436;55.068;73.284;2024-03-17T09:43:55;19.00;17.33;13.00
79038;PMS5003;68436;55.068;73.284;2024-03-17T09:46:22;13.00;12.00;7.00
79038;PMS5003;68436;55.068;73.284;2024-03-17T09:48:48;10.00;10.00;7.00
79038;PMS5003;68436;55.068;73.284;2024-03-17T09:51:19;11.50;10.00;7.00
79038;PMS5003;68436;55.068;73.284;2024-03-17T09:53:46;11.50;9.75;5.75
79038;PMS5003;68436;55.068;73.284;2024-03-17T09:56:13;16.75;13.00;9.00
79038;PMS5003;68436;55.068;73.284;2024-03-17T09:58:58;11.75;9.75;6.00
79038;PMS5003;68436;55.068;73.284;2024-03-17T10:01:24;19.00;16.00;9.50
79038;PMS5003;68436;55.068;73.284;2024-03-17T10:03:52;19.75;16.00;9.00
79038;PMS5003;68436;55.068;73.284;2024-03-17T10:06:20;18.00;15.00;10.00
79038;PMS5003;68436;55.068;73.284;2024-03-17T10:08:51;15.00;13.00;8.20
79038;PMS5003;68436;55.068;73.284;2024-03-17T10:11:18;14.00;12.00;9.00
79038;PMS5003;68436;55.068;73.284;2024-03-17T10:13:45;13.00;11.67;7.33
79038;PMS5003;68436;55.068;73.284;2024-03-17T10:18:47;18.00;16.00;10.00
79038;PMS5003;68436;55.068;73.284;2024-03-17T10:21:34;15.00;13.00;7.00
79038;PMS5003;68436;55.068;73.284;2024-03-17T10:26:46;16.00;13.50;9.00
79038;PMS5003;68436;55.068;73.284;2024-03-17T10:29:34;18.33;13.33;9.33
79038;PMS5003;68436;55.068;73.284;2024-03-17T10:32:04;12.00;10.00;6.00
79038;PMS5003;68436;55.068;73.284;2024-03-17T10:34:31;14.00;12.00;7.00
79038;PMS5003;68436;55.068;73.284;2024-03-17T10:37:15;12.50;11.00;6.75
79038;PMS5003;68436;55.068;73.284;2024-03-17T10:39:53;13.00;12.00;9.00
79038;PMS5003;68436;55.068;73.284;2024-03-17T10:42:27;15.50;13.00;7.50
79038;PMS5003;68436;55.068;73.284;2024-03-17T10:44:54;12.25;11.00;6.00
79038;PMS5003;68436;55.068;73.284;2024-03-17T10:47:22;12.00;11.00;8.00
79038;PMS5003;68436;55.068;73.284;2024-03-17T10:49:49;14.00;12.00;7.00
79038;PMS5003;68436;55.068;73.284;2024-03-17T10:52:16;16.25;13.25;8.00
79038;PMS5003;68436;55.068;73.284;2024-03-17T10:54:50;12.25;11.00;7.25
79038;PMS5003;68436;55.068;73.284;2024-03-17T10:57:34;16.00;14.00;9.00
79038;PMS5003;68436;55.068;73.284;2024-03-17T11:00:04;12.00;11.00;7.00
79038;PMS5003;68436;55.068;73.284;2024-03-17T11:02:31;16.00;14.00;9.00
79038;PMS5003;68436;55.068;73.284;2024-03-17T11:05:18;16.67;14.00;8.00
79038;PMS5003;68436;55.068;73.284;2024-03-17T11:07:45;10.00;8.00;5.75
79038;PMS5003;68436;55.068;73.284;2024-03-17T11:10:14;13.50;10.50;6.50
79038;PMS5003;68436;55.068;73.284;2024-03-17T11:12:51;11.00;9.00;5.75
79038;PMS5003;68436;55.068;73.284;2024-03-17T11:17:47;13.00;10.00;6.00
79038;PMS5003;68436;55.068;73.284;2024-03-17T11:20:28;14.00;12.00;7.00
79038;PMS5003;68436;55.068;73.284;2024-03-17T11:22:58;13.00;10.75;7.00
79038;PMS5003;68436;55.068;73.284;2024-03-17T11:27:53;8.50;7.00;4.00
79038;PMS5003;68436;55.068;73.284;2024-03-17T11:33:07;9.00;8.00;4.50
79038;PMS5003;68436;55.068;73.284;2024-03-17T11:35:50;24.50;21.00;14.00
79038;PMS5003;68436;55.068;73.284;2024-03-17T11:38:50;26.75;22.50;15.00
79038;PMS5003;68436;55.068;73.284;2024-03-17T11:46:54;11.75;9.50;6.00
79038;PMS5003;68436;55.068;73.284;2024-03-17T11:49:23;25.00;22.00;14.00
79038;PMS5003;68436;55.068;73.284;2024-03-17T11:51:50;18.50;15.00;9.00
79038;PMS5003;68436;55.068;73.284;2024-03-17T11:54:17;13.67;11.67;7.00
79038;PMS5003;68436;55.068;73.284;2024-03-17T11:56:48;16.00;13.50;8.00
79038;PMS5003;68436;55.068;73.284;2024-03-17T11:59:15;16.33;13.00;8.00
79038;PMS5003;68436;55.068;73.284;2024-03-17T12:01:44;19.00;15.50;10.00
79038;PMS5003;68436;55.068;73.284;2024-03-17T12:04:11;29.00;24.00;16.33
79038;PMS5003;68436;55.068;73.284;2024-03-17T12:06:38;17.25;15.00;10.00
79038;PMS5003;68436;55.068;73.284;2024-03-17T12:09:20;22.33;19.33;12.33
79038;PMS5003;68436;55.068;73.284;2024-03-17T12:12:00;21.00;18.00;13.00
79038;PMS5003;68436;55.068;73.284;2024-03-17T12:14:26;45.33;36.00;23.00
79038;PMS5003;68436;55.068;73.284;2024-03-17T12:16:53;20.00;16.25;9.25
79038;PMS5003;68436;55.068;73.284;2024-03-17T12:19:38;21.00;17.00;9.50
79038;PMS5003;68436;55.068;73.284;2024-03-17T12:22:05;27.50;20.75;12.75
79038;PMS5003;68436;55.068;73.284;2024-03-17T12:24:54;19.00;17.00;11.00
79038;PMS5003;68436;55.068;73.284;2024-03-17T12:27:21;22.25;18.25;12.00
79038;PMS5003;68436;55.068;73.284;2024-03-17T12:29:48;28.50;22.75;14.00
79038;PMS5003;68436;55.068;73.284;2024-03-17T12:32:15;115.75;93.00;55.00
79038;PMS5003;68436;55.068;73.284;2024-03-17T12:35:01;13.00;11.00;7.00
79038;PMS5003;68436;55.068;73.284;2024-03-17T12:37:29;17.00;13.25;6.50
79038;PMS5003;68436;55.068;73.284;2024-03-17T12:40:19;23.25;19.00;11.00
79038;PMS5003;68436;55.068;73.284;2024-03-17T12:42:49;26.50;21.50;15.50
79038;PMS5003;68436;55.068;73.284;2024-03-17T12:45:19;19.00;14.00;9.00
79038;PMS5003;68436;55.068;73.284;2024-03-17T12:47:48;16.00;13.00;9.00
79038;PMS5003;68436;55.068;73.284;2024-03-17T12:50:33;18.00;15.00;8.67
79038;PMS5003;68436;55.068;73.284;2024-03-17T12:53:17;17.75;14.75;10.00
79038;PMS5003;68436;55.068;73.284;2024-03-17T12:55:52;22.75;18.25;11.00
79038;PMS5003;68436;55.068;73.284;2024-03-17T12:58:42;22.00;18.00;11.00
79038;PMS5003;68436;55.068;73.284;2024-03-17T13:01:35;34.50;29.25;18.50
79038;PMS5003;68436;55.068;73.284;2024-03-17T13:04:07;18.33;15.00;10.33
79038;PMS5003;68436;55.068;73.284;2024-03-17T13:06:56;34.00;28.00;19.00
79038;PMS5003;68436;55.068;73.284;2024-03-17T13:09:22;32.00;27.33;17.33
79038;PMS5003;68436;55.068;73.284;2024-03-17T13:11:49;35.00;29.00;19.00
79038;PMS5003;68436;55.068;73.284;2024-03-17T13:14:16;36.00;30.00;19.67
79038;PMS5003;68436;55.068;73.284;2024-03-17T13:16:43;36.75;28.75;18.50
79038;PMS5003;68436;55.068;73.284;2024-03-17T13:19:29;54.33;42.00;26.00
79038;PMS5003;68436;55.068;73.284;2024-03-17T13:21:55;72.00;57.00;36.50
79038;PMS5003;68436;55.068;73.284;2024-03-17T13:24:21;51.33;41.00;27.00
79038;PMS5003;68436;55.068;73.284;2024-03-17T13:27:06;57.00;46.00;29.75
79038;PMS5003;68436;55.068;73.284;2024-03-17T13:29:34;46.00;36.00;23.67
79038;PMS5003;68436;55.068;73.284;2024-03-17T13:32:04;40.75;33.00;22.00
79038;PMS5003;68436;55.068;73.284;2024-03-17T13:34:30;35.50;28.50;18.50
79038;PMS5003;68436;55.068;73.284;2024-03-17T13:36:56;33.50;28.75;19.00
79038;PMS5003;68436;55.068;73.284;2024-03-17T13:39:29;29.75;24.25;15.25
79038;PMS5003;68436;55.068;73.284;2024-03-17T13:41:57;33.25;27.75;17.50
79038;PMS5003;68436;55.068;73.284;2024-03-17T13:45:00;27.00;22.00;13.25
79038;PMS5003;68436;55.068;73.284;2024-03-17T13:47:26;17.00;15.00;10.00
79038;PMS5003;68436;55.068;73.284;2024-03-17T13:49:53;31.33;25.00;16.00
79038;PMS5003;68436;55.068;73.284;2024-03-17T13:52:19;33.50;28.00;18.00
79038;PMS5003;68436;55.068;73.284;2024-03-17T13:54:45;66.00;51.33;32.67
79038;PMS5003;68436;55.068;73.284;2024-03-17T13:57:11;30.00;25.75;16.25
79038;PMS5003;68436;55.068;73.284;2024-03-17T13:59:38;43.00;35.00;22.00
79038;PMS5003;68436;55.068;73.284;2024-03-17T14:02:04;33.00;27.00;18.00
79038;PMS5003;68436;55.068;73.284;2024-03-17T14:04:30;32.00;26.67;17.67
79038;PMS5003;68436;55.068;73.284;2024-03-17T14:06:56;16.00;13.00;7.25
79038;PMS5003;68436;55.068;73.284;2024-03-17T14:09:22;37.00;32.00;21.00
79038;PMS5003;68436;55.068;73.284;2024-03-17T14:11:48;21.00;19.00;12.00
79038;PMS5003;68436;55.068;73.284;2024-03-17T14:14:16;17.00;14.00;9.00
79038;PMS5003;68436;55.068;73.284;2024-03-17T14:16:43;26.00;21.00;13.25
79038;PMS5003;68436;55.068;73.284;2024-03-17T14:19:12;29.00;24.00;16.00
79038;PMS5003;68436;55.068;73.284;2024-03-17T14:21:38;21.25;18.75;13.75
79038;PMS5003;68436;55.068;73.284;2024-03-17T14:24:04;20.00;16.00;10.00
79038;PMS5003;68436;55.068;73.284;2024-03-17T14:26:33;30.25;24.00;15.00
79038;PMS5003;68436;55.068;73.284;2024-03-17T14:29:03;14.00;12.00;7.67